createdAt,value
2019-05-09T00:01:45.480Z,9.30
2019-05-09T00:04:15.670Z,9.40
2019-05-09T00:06:45.853Z,9.30
2019-05-09T00:09:16.051Z,9.30
2019-05-09T00:11:46.681Z,9.30
2019-05-09T00:14:16.987Z,9.30
2019-05-09T00:16:47.588Z,9.30
2019-05-09T00:19:17.794Z,9.30
2019-05-09T00:21:48.621Z,9.30
2019-05-09T00:24:18.857Z,9.20
2019-05-09T00:26:49.315Z,9.20
2019-05-09T00:29:26.072Z,9.20
2019-05-09T00:32:15.318Z,9.20
2019-05-09T00:34:53.252Z,9.20
2019-05-09T00:37:43.239Z,9.20
2019-05-09T00:40:14.014Z,9.20
2019-05-09T00:42:44.238Z,9.20
2019-05-09T00:45:33.208Z,9.20
2019-05-09T00:48:03.537Z,9.20
2019-05-09T00:50:34.980Z,9.20
2019-05-09T00:53:05.162Z,9.10
2019-05-09T00:55:35.354Z,9.00
2019-05-09T00:58:05.494Z,9.00
2019-05-09T01:00:36.202Z,9.10
2019-05-09T01:03:06.378Z,9.10
2019-05-09T01:05:36.622Z,9.10
2019-05-09T01:08:07.169Z,9.10
2019-05-09T01:10:38.076Z,9.10
2019-05-09T01:13:08.776Z,9.00
2019-05-09T01:15:38.895Z,9.00
2019-05-09T01:18:09.062Z,9.00
2019-05-09T01:20:39.853Z,8.90
2019-05-09T01:23:10.323Z,8.90
2019-05-09T01:25:40.467Z,9.00
2019-05-09T01:28:10.806Z,8.90
2019-05-09T01:30:43.677Z,8.90
2019-05-09T01:33:37.405Z,8.90
2019-05-09T01:36:07.595Z,8.90
2019-05-09T01:38:37.751Z,8.90
2019-05-09T01:41:07.971Z,8.90
2019-05-09T01:43:38.567Z,8.90
2019-05-09T01:46:08.792Z,8.90
2019-05-09T01:48:39.022Z,8.80
2019-05-09T01:51:09.210Z,8.80
2019-05-09T01:53:44.025Z,8.90
2019-05-09T01:56:14.669Z,8.80
2019-05-09T01:58:44.909Z,8.80
2019-05-09T02:01:15.113Z,8.80
2019-05-09T02:03:45.625Z,8.80
2019-05-09T02:06:15.824Z,8.80
2019-05-09T02:08:45.993Z,8.90
2019-05-09T02:11:16.274Z,8.90
2019-05-09T02:13:46.441Z,9.00
2019-05-09T02:16:25.015Z,9.00
2019-05-09T02:19:04.390Z,8.90
2019-05-09T02:21:34.684Z,8.80
2019-05-09T02:24:05.417Z,8.80
2019-05-09T02:26:35.704Z,8.70
2019-05-09T02:29:06.322Z,8.70
2019-05-09T02:31:36.823Z,8.70
2019-05-09T02:34:07.429Z,8.70
2019-05-09T02:36:38.503Z,8.80
2019-05-09T02:39:09.284Z,8.80
2019-05-09T02:41:58.999Z,8.80
2019-05-09T02:44:11.839Z,8.80
2019-05-09T02:47:08.757Z,8.80
2019-05-09T02:49:39.090Z,8.70
2019-05-09T02:52:09.557Z,8.70
2019-05-09T02:54:39.731Z,8.60
2019-05-09T02:57:09.913Z,8.60
2019-05-09T02:59:59.228Z,8.70
2019-05-09T03:02:54.406Z,8.60
2019-05-09T03:05:24.554Z,8.70
2019-05-09T03:07:54.755Z,8.70
2019-05-09T03:10:25.266Z,8.70
2019-05-09T03:12:55.452Z,8.70
2019-05-09T03:15:28.825Z,8.60
2019-05-09T03:17:59.953Z,8.60
2019-05-09T03:20:52.129Z,8.70
2019-05-09T03:23:22.315Z,8.60
2019-05-09T03:25:52.478Z,8.60
2019-05-09T03:28:33.219Z,8.60
2019-05-09T03:31:04.137Z,8.50
2019-05-09T03:33:35.731Z,8.50
2019-05-09T03:36:07.814Z,8.60
2019-05-09T03:38:38.271Z,8.50
2019-05-09T03:41:09.516Z,8.50
2019-05-09T03:43:39.700Z,8.50
2019-05-09T03:46:18.050Z,8.50
2019-05-09T03:48:51.516Z,8.50
2019-05-09T03:51:21.731Z,8.60
2019-05-09T03:53:51.964Z,8.60
2019-05-09T03:56:27.390Z,8.50
2019-05-09T03:58:57.936Z,8.60
2019-05-09T04:01:28.210Z,8.70
2019-05-09T04:03:58.546Z,8.70
2019-05-09T04:06:30.852Z,8.70
2019-05-09T04:09:01.407Z,8.70
2019-05-09T04:11:31.851Z,8.60
2019-05-09T04:14:05.281Z,8.60
2019-05-09T04:16:37.961Z,8.50
2019-05-09T04:19:08.290Z,8.50
2019-05-09T04:21:38.676Z,8.50
2019-05-09T04:24:09.223Z,8.60
2019-05-09T04:26:48.458Z,8.50
2019-05-09T04:29:19.023Z,8.50
2019-05-09T04:31:49.195Z,8.50
2019-05-09T04:34:19.414Z,8.40
2019-05-09T04:36:49.595Z,8.40
2019-05-09T04:39:23.573Z,8.30
2019-05-09T04:41:55.026Z,8.40
2019-05-09T04:44:38.021Z,8.50
2019-05-09T04:47:08.841Z,8.50
2019-05-09T04:49:40.885Z,8.60
2019-05-09T04:52:11.052Z,8.60
2019-05-09T04:54:41.638Z,8.70
2019-05-09T04:57:11.875Z,8.80
2019-05-09T04:59:42.055Z,8.80
2019-05-09T05:02:34.728Z,8.80
2019-05-09T05:05:07.630Z,8.90
2019-05-09T05:07:37.814Z,8.90
2019-05-09T05:10:09.191Z,8.90
2019-05-09T05:12:40.364Z,9.00
2019-05-09T05:15:11.554Z,9.10
2019-05-09T05:17:41.734Z,9.10
2019-05-09T05:20:15.580Z,9.20
2019-05-09T05:23:05.091Z,9.30
2019-05-09T05:25:35.600Z,9.40
2019-05-09T05:28:05.785Z,9.40
2019-05-09T05:30:37.360Z,9.50
2019-05-09T05:33:29.077Z,9.60
2019-05-09T05:36:02.247Z,9.80
2019-05-09T05:38:32.418Z,10.10
2019-05-09T05:41:02.723Z,10.10
2019-05-09T05:43:41.594Z,10.10
2019-05-09T05:46:21.800Z,10.20
2019-05-09T05:48:52.777Z,10.30
2019-05-09T05:51:22.976Z,10.20
2019-05-09T05:53:53.532Z,10.20
2019-05-09T05:56:24.364Z,10.20
2019-05-09T05:58:54.507Z,10.30
2019-05-09T06:01:24.790Z,10.50
2019-05-09T06:03:54.960Z,10.80
2019-05-09T06:06:25.154Z,11.00
2019-05-09T06:08:57.735Z,11.20
2019-05-09T06:11:28.105Z,11.40
2019-05-09T06:14:08.129Z,11.40
2019-05-09T06:16:30.777Z,11.50
2019-05-09T06:19:01.315Z,11.60
2019-05-09T06:21:31.539Z,11.50
2019-05-09T06:24:01.803Z,11.50
2019-05-09T06:26:32.162Z,11.60
2019-05-09T06:29:02.689Z,11.70
2019-05-09T06:31:33.845Z,11.70
2019-05-09T06:34:04.465Z,11.70
2019-05-09T06:36:34.667Z,11.70
2019-05-09T06:39:08.263Z,11.80
2019-05-09T06:41:39.105Z,11.80
2019-05-09T06:44:31.049Z,11.90
2019-05-09T06:47:08.047Z,12.00
2019-05-09T06:49:39.723Z,12.20
2019-05-09T06:52:09.902Z,12.20
2019-05-09T06:54:41.710Z,12.20
2019-05-09T06:57:12.003Z,12.30
2019-05-09T06:59:42.176Z,12.50
2019-05-09T07:02:21.767Z,12.50
2019-05-09T07:04:58.194Z,12.40
2019-05-09T07:07:59.899Z,12.50
2019-05-09T07:10:30.421Z,12.60
2019-05-09T07:13:00.885Z,12.70
2019-05-09T07:15:31.111Z,12.60
2019-05-09T07:18:01.302Z,12.60
2019-05-09T07:20:31.507Z,12.80
2019-05-09T07:23:03.182Z,12.90
2019-05-09T07:25:55.147Z,13.00
2019-05-09T07:28:28.148Z,13.20
2019-05-09T07:31:11.269Z,13.30
2019-05-09T07:33:44.754Z,13.30
2019-05-09T07:36:15.848Z,13.40
2019-05-09T07:38:47.780Z,13.50
2019-05-09T07:41:18.223Z,13.70
2019-05-09T07:43:48.445Z,13.80
2019-05-09T07:46:24.119Z,13.70
2019-05-09T07:48:57.583Z,13.80
2019-05-09T07:51:27.618Z,14.10
2019-05-09T07:53:58.879Z,14.30
2019-05-09T07:56:29.458Z,14.50
2019-05-09T07:58:59.691Z,14.60
2019-05-09T08:01:30.928Z,14.50
2019-05-09T08:04:02.209Z,14.40
2019-05-09T08:06:32.400Z,14.30
2019-05-09T08:09:02.627Z,14.40
2019-05-09T08:11:32.797Z,14.30
2019-05-09T08:14:03.508Z,14.50
2019-05-09T08:16:34.869Z,14.80
2019-05-09T08:19:07.339Z,14.80
2019-05-09T08:21:38.376Z,14.80
2019-05-09T08:24:08.934Z,14.70
2019-05-09T08:26:39.778Z,14.60
2019-05-09T08:29:10.050Z,14.70
2019-05-09T08:31:40.546Z,14.70
2019-05-09T08:34:10.926Z,14.70
2019-05-09T08:36:41.121Z,14.80
2019-05-09T08:39:11.446Z,14.90
2019-05-09T08:41:42.008Z,15.20
2019-05-09T08:44:13.620Z,15.10
2019-05-09T08:46:43.952Z,15.20
2019-05-09T08:49:14.448Z,15.20
2019-05-09T08:52:14.904Z,15.20
2019-05-09T08:54:44.331Z,15.30
2019-05-09T08:57:14.504Z,15.30
2019-05-09T08:59:47.232Z,15.40
2019-05-09T09:02:21.943Z,15.50
2019-05-09T09:04:49.214Z,15.60
2019-05-09T09:07:19.520Z,15.70
2019-05-09T09:09:49.996Z,15.70
2019-05-09T09:12:30.500Z,15.80
2019-05-09T09:14:52.106Z,15.90
2019-05-09T09:17:22.325Z,15.80
2019-05-09T09:19:52.530Z,15.40
2019-05-09T09:22:22.705Z,15.30
2019-05-09T09:24:53.585Z,15.30
2019-05-09T09:27:23.826Z,15.30
2019-05-09T09:29:54.072Z,15.20
2019-05-09T09:32:24.278Z,15.10
2019-05-09T09:34:54.561Z,15.00
2019-05-09T09:37:24.804Z,15.10
2019-05-09T09:39:55.007Z,15.20
2019-05-09T09:42:28.221Z,15.30
2019-05-09T09:44:58.754Z,15.50
2019-05-09T09:47:29.097Z,15.50
2019-05-09T09:50:00.500Z,15.40
2019-05-09T09:52:34.277Z,15.60
2019-05-09T09:55:02.860Z,15.50
2019-05-09T09:57:33.054Z,15.50
2019-05-09T10:00:22.686Z,15.60
2019-05-09T10:02:52.891Z,15.70
2019-05-09T10:05:23.409Z,16.10
2019-05-09T10:07:53.595Z,16.40
2019-05-09T10:10:35.376Z,16.90
2019-05-09T10:13:10.342Z,17.00
2019-05-09T10:16:00.118Z,16.80
2019-05-09T10:18:57.713Z,16.80
2019-05-09T10:21:30.301Z,16.60
2019-05-09T10:24:00.467Z,16.90
2019-05-09T10:26:30.984Z,17.60
2019-05-09T10:29:01.252Z,18.10
2019-05-09T10:31:31.533Z,18.50
2019-05-09T10:34:01.781Z,18.90
2019-05-09T10:36:31.976Z,18.90
2019-05-09T10:39:02.146Z,18.70
2019-05-09T10:41:32.792Z,18.20
2019-05-09T10:44:17.863Z,17.80
2019-05-09T10:47:01.856Z,17.90
2019-05-09T10:49:29.747Z,17.70
2019-05-09T10:52:00.003Z,17.50
2019-05-09T10:54:30.204Z,17.30
2019-05-09T10:57:00.426Z,17.20
2019-05-09T10:59:30.678Z,17.00
2019-05-09T11:02:00.893Z,17.00
2019-05-09T11:04:31.121Z,16.90
2019-05-09T11:07:01.419Z,17.10
2019-05-09T11:09:31.712Z,17.40
2019-05-09T11:12:02.001Z,17.50
2019-05-09T11:14:37.228Z,17.20
2019-05-09T11:17:10.999Z,16.50
2019-05-09T11:19:35.922Z,16.40
2019-05-09T11:22:08.093Z,16.40
2019-05-09T11:24:45.868Z,16.40
2019-05-09T11:27:10.265Z,16.40
2019-05-09T11:29:40.719Z,16.40
2019-05-09T11:32:10.927Z,16.50
2019-05-09T11:34:41.100Z,16.40
2019-05-09T11:37:11.348Z,16.30
2019-05-09T11:39:44.966Z,16.50
2019-05-09T11:42:17.692Z,16.60
2019-05-09T11:44:47.755Z,16.70
2019-05-09T11:47:32.382Z,16.70
2019-05-09T11:49:50.145Z,16.90
2019-05-09T11:52:20.784Z,17.10
2019-05-09T11:54:50.946Z,17.30
2019-05-09T11:57:21.157Z,17.90
2019-05-09T11:59:51.394Z,18.80
2019-05-09T12:02:21.566Z,19.20
2019-05-09T12:04:52.115Z,18.80
2019-05-09T12:07:22.339Z,18.30
2019-05-09T12:09:52.505Z,18.00
2019-05-09T12:12:22.778Z,18.00
2019-05-09T12:14:52.928Z,17.90
2019-05-09T12:17:23.857Z,18.00
2019-05-09T12:20:09.016Z,18.20
2019-05-09T12:22:27.953Z,18.70
2019-05-09T12:24:59.252Z,18.80
2019-05-09T12:27:30.451Z,18.80
2019-05-09T12:30:01.347Z,19.10
2019-05-09T12:32:31.560Z,19.30
2019-05-09T12:35:01.744Z,19.70
2019-05-09T12:37:31.938Z,20.00
2019-05-09T12:40:02.482Z,20.20
2019-05-09T12:42:32.693Z,20.30
2019-05-09T12:45:03.293Z,20.40
2019-05-09T12:47:33.449Z,20.00
2019-05-09T12:50:04.288Z,19.60
2019-05-09T12:52:34.579Z,19.30
2019-05-09T12:55:08.178Z,19.10
2019-05-09T12:57:38.737Z,18.80
2019-05-09T13:00:10.160Z,18.70
2019-05-09T13:02:40.353Z,18.40
2019-05-09T13:05:10.528Z,18.20
2019-05-09T13:07:42.494Z,17.90
2019-05-09T13:10:12.654Z,18.00
2019-05-09T13:12:42.842Z,18.00
2019-05-09T13:15:13.131Z,18.30
2019-05-09T13:17:45.013Z,18.50
2019-05-09T13:20:18.284Z,18.60
2019-05-09T13:22:48.644Z,18.60
2019-05-09T13:25:19.242Z,18.40
2019-05-09T13:27:52.668Z,18.30
2019-05-09T13:30:21.946Z,18.20
2019-05-09T13:32:52.287Z,18.10
2019-05-09T13:35:22.386Z,18.20
2019-05-09T13:37:52.545Z,18.00
2019-05-09T13:40:22.735Z,18.00
2019-05-09T13:42:53.354Z,17.90
2019-05-09T13:45:24.326Z,17.70
2019-05-09T13:47:54.621Z,17.50
2019-05-09T13:50:24.798Z,17.40
2019-05-09T13:52:55.022Z,17.20
2019-05-09T13:55:27.491Z,17.00
2019-05-09T13:57:59.307Z,16.80
2019-05-09T14:00:29.408Z,16.50
2019-05-09T14:02:59.962Z,16.50
2019-05-09T14:05:30.438Z,16.40
2019-05-09T14:08:03.108Z,16.20
2019-05-09T14:10:32.601Z,15.90
2019-05-09T14:13:09.815Z,15.80
2019-05-09T14:15:34.714Z,15.70
2019-05-09T14:18:05.150Z,15.70
2019-05-09T14:20:37.569Z,15.60
2019-05-09T14:23:11.509Z,15.60
2019-05-09T14:25:39.306Z,15.60
2019-05-09T14:28:09.528Z,15.30
2019-05-09T14:30:40.095Z,15.20
2019-05-09T14:33:10.288Z,15.10
2019-05-09T14:35:40.815Z,14.90
2019-05-09T14:38:10.931Z,15.10
2019-05-09T14:40:41.158Z,15.30
2019-05-09T14:43:11.312Z,15.50
2019-05-09T14:45:49.712Z,15.90
2019-05-09T14:48:19.988Z,16.30
2019-05-09T14:50:50.522Z,17.30
2019-05-09T14:53:23.104Z,18.80
2019-05-09T14:55:53.564Z,21.00
2019-05-09T14:58:24.603Z,22.50
2019-05-09T15:00:54.899Z,22.30
2019-05-09T15:03:27.657Z,21.70
2019-05-09T15:05:57.550Z,21.10
2019-05-09T15:08:28.040Z,21.00
2019-05-09T15:10:58.461Z,20.90
2019-05-09T15:13:29.004Z,20.60
2019-05-09T15:15:59.658Z,19.50
2019-05-09T15:18:31.924Z,18.20
2019-05-09T15:21:03.620Z,17.30
2019-05-09T15:23:34.109Z,16.80
2019-05-09T15:26:10.171Z,16.50
2019-05-09T15:28:42.012Z,16.20
2019-05-09T15:31:12.633Z,15.90
2019-05-09T15:33:42.859Z,15.60
2019-05-09T15:36:13.070Z,15.50
2019-05-09T15:38:43.487Z,15.30
2019-05-09T15:41:14.457Z,15.20
2019-05-09T15:43:44.738Z,15.00
2019-05-09T15:46:27.804Z,14.80
2019-05-09T15:48:58.779Z,14.60
2019-05-09T15:51:32.039Z,14.40
2019-05-09T15:54:01.312Z,14.30
2019-05-09T15:56:32.551Z,14.20
2019-05-09T15:59:02.879Z,14.20
2019-05-09T16:01:33.030Z,14.20
2019-05-09T16:04:03.450Z,14.10
2019-05-09T16:06:33.781Z,14.10
2019-05-09T16:09:09.319Z,14.10
2019-05-09T16:11:37.946Z,14.10
2019-05-09T16:14:08.259Z,14.10
2019-05-09T16:16:38.693Z,14.10
2019-05-09T16:19:10.376Z,14.00
2019-05-09T16:21:41.045Z,13.90
2019-05-09T16:24:11.415Z,13.90
2019-05-09T16:26:41.678Z,13.90
2019-05-09T16:29:11.968Z,13.90
2019-05-09T16:31:42.157Z,14.00
2019-05-09T16:34:12.440Z,14.10
2019-05-09T16:36:42.627Z,14.20
2019-05-09T16:39:13.174Z,14.10
2019-05-09T16:41:44.096Z,14.10
2019-05-09T16:44:14.321Z,14.30
2019-05-09T16:46:44.543Z,14.60
2019-05-09T16:49:17.524Z,15.30
2019-05-09T16:51:48.606Z,16.20
2019-05-09T16:54:19.029Z,16.70
2019-05-09T16:56:49.188Z,16.50
2019-05-09T16:59:19.408Z,16.40
2019-05-09T17:01:50.559Z,16.00
2019-05-09T17:04:21.027Z,15.50
2019-05-09T17:06:51.304Z,15.20
2019-05-09T17:09:21.869Z,14.90
2019-05-09T17:11:52.064Z,14.80
2019-05-09T17:14:22.306Z,14.70
2019-05-09T17:16:53.156Z,14.60
2019-05-09T17:19:23.754Z,14.50
2019-05-09T17:22:13.023Z,14.50
2019-05-09T17:24:44.584Z,14.40
2019-05-09T17:27:14.859Z,14.20
2019-05-09T17:29:47.923Z,14.10
2019-05-09T17:32:18.299Z,14.10
2019-05-09T17:34:49.937Z,14.00
2019-05-09T17:37:20.458Z,13.90
2019-05-09T17:39:50.762Z,13.90
2019-05-09T17:42:20.945Z,13.80
2019-05-09T17:44:51.579Z,13.80
2019-05-09T17:47:21.977Z,13.90
2019-05-09T17:49:52.302Z,13.90
2019-05-09T17:52:22.490Z,13.80
2019-05-09T17:54:53.070Z,13.80
2019-05-09T17:57:23.238Z,13.90
2019-05-09T17:59:53.564Z,13.80
2019-05-09T18:02:23.731Z,13.90
2019-05-09T18:04:54.354Z,13.90
2019-05-09T18:07:24.542Z,13.90
2019-05-09T18:09:57.890Z,14.00
2019-05-09T18:12:27.755Z,14.00
2019-05-09T18:14:58.505Z,13.90
2019-05-09T18:17:28.986Z,13.80
2019-05-09T18:19:59.534Z,13.70
2019-05-09T18:22:29.766Z,13.60
2019-05-09T18:25:00.136Z,13.60
2019-05-09T18:27:30.330Z,13.50
2019-05-09T18:30:00.550Z,13.50
2019-05-09T18:32:50.872Z,13.50
2019-05-09T18:35:22.695Z,13.40
2019-05-09T18:37:53.775Z,13.40
2019-05-09T18:40:24.413Z,13.30
2019-05-09T18:42:54.966Z,13.30
2019-05-09T18:45:28.060Z,13.30
2019-05-09T18:47:58.755Z,13.30
2019-05-09T18:50:28.985Z,13.20
2019-05-09T18:52:59.109Z,13.20
2019-05-09T18:55:29.288Z,13.10
2019-05-09T18:57:59.519Z,13.10
2019-05-09T19:00:29.820Z,13.20
2019-05-09T19:03:00.130Z,13.10
2019-05-09T19:05:30.436Z,13.00
2019-05-09T19:08:00.711Z,13.00
2019-05-09T19:10:31.520Z,13.00
2019-05-09T19:13:01.827Z,13.00
2019-05-09T19:15:58.278Z,12.90
2019-05-09T19:18:41.337Z,12.90
2019-05-09T19:21:15.556Z,12.90
2019-05-09T19:23:45.679Z,12.90
2019-05-09T19:26:33.990Z,12.90
2019-05-09T19:29:09.543Z,13.00
2019-05-09T19:31:40.206Z,12.90
2019-05-09T19:34:10.720Z,12.90
2019-05-09T19:36:40.960Z,12.90
2019-05-09T19:39:11.872Z,12.90
2019-05-09T19:41:42.163Z,12.90
2019-05-09T19:44:12.346Z,12.90
2019-05-09T19:46:43.749Z,12.90
2019-05-09T19:49:14.187Z,12.90
2019-05-09T19:51:44.454Z,12.80
2019-05-09T19:54:14.663Z,12.70
2019-05-09T19:56:44.876Z,12.50
2019-05-09T19:59:15.791Z,12.50
2019-05-09T20:01:46.055Z,12.50
2019-05-09T20:04:16.389Z,12.40
2019-05-09T20:06:47.150Z,12.20
2019-05-09T20:09:26.248Z,12.10
2019-05-09T20:12:07.149Z,12.10
2019-05-09T20:14:40.094Z,12.10
2019-05-09T20:17:10.474Z,12.10
2019-05-09T20:19:40.726Z,12.10
2019-05-09T20:22:11.209Z,12.20
2019-05-09T20:24:41.404Z,12.20
2019-05-09T20:27:11.702Z,12.30
2019-05-09T20:29:42.217Z,12.30
2019-05-09T20:32:12.520Z,12.30
2019-05-09T20:34:42.807Z,12.30
2019-05-09T20:37:13.356Z,12.40
2019-05-09T20:39:44.129Z,12.40
2019-05-09T20:42:15.179Z,12.30
2019-05-09T20:44:45.581Z,12.40
2019-05-09T20:47:16.132Z,12.30
2019-05-09T20:49:46.584Z,12.40
2019-05-09T20:52:17.080Z,12.30
2019-05-09T20:54:47.823Z,12.40
2019-05-09T20:57:18.661Z,12.30
2019-05-09T20:59:49.501Z,12.30
2019-05-09T21:02:20.253Z,12.30
2019-05-09T21:04:51.043Z,12.40
2019-05-09T21:07:21.511Z,12.30
2019-05-09T21:09:52.977Z,12.40
2019-05-09T21:12:23.675Z,12.40
2019-05-09T21:14:54.457Z,12.30
2019-05-09T21:17:24.831Z,12.30
2019-05-09T21:19:55.500Z,12.30
2019-05-09T21:22:26.277Z,12.30
2019-05-09T21:24:57.101Z,12.20
2019-05-09T21:27:27.557Z,12.20
2019-05-09T21:29:58.325Z,12.20
2019-05-09T21:32:29.072Z,12.20
2019-05-09T21:34:59.196Z,12.20
2019-05-09T21:37:29.459Z,12.20
2019-05-09T21:40:00.074Z,12.20
2019-05-09T21:42:30.401Z,12.10
2019-05-09T21:45:00.557Z,12.10
2019-05-09T21:47:30.875Z,12.10
2019-05-09T21:50:01.044Z,12.10
2019-05-09T21:52:32.350Z,12.10
2019-05-09T21:55:02.842Z,12.10
2019-05-09T21:57:33.137Z,12.10
2019-05-09T22:00:03.698Z,12.10
2019-05-09T22:02:35.595Z,12.10
2019-05-09T22:05:06.844Z,12.20
2019-05-09T22:07:37.053Z,12.10
2019-05-09T22:10:07.639Z,12.10
2019-05-09T22:12:38.166Z,12.20
2019-05-09T22:15:09.072Z,12.20
2019-05-09T22:17:39.688Z,12.00
2019-05-09T22:20:11.170Z,12.00
2019-05-09T22:22:41.373Z,11.90
2019-05-09T22:25:12.516Z,11.80
2019-05-09T22:27:43.095Z,11.60
2019-05-09T22:30:15.274Z,11.50
2019-05-09T22:32:45.580Z,11.40
2019-05-09T22:35:16.024Z,11.20
2019-05-09T22:37:47.223Z,11.20
2019-05-09T22:40:17.935Z,11.20
2019-05-09T22:42:48.216Z,11.20
2019-05-09T22:45:19.129Z,11.10
2019-05-09T22:47:49.304Z,11.20
2019-05-09T22:50:19.518Z,11.10
2019-05-09T22:52:49.723Z,11.00
2019-05-09T22:55:20.306Z,11.00
2019-05-09T22:57:50.877Z,10.90
2019-05-09T23:00:21.070Z,11.00
2019-05-09T23:02:51.354Z,11.00
2019-05-09T23:05:21.548Z,11.00
2019-05-09T23:07:51.768Z,11.00
2019-05-09T23:10:22.702Z,11.00
2019-05-09T23:12:52.965Z,11.00
2019-05-09T23:15:23.060Z,10.90
2019-05-09T23:17:53.237Z,10.90
2019-05-09T23:20:41.516Z,11.00
2019-05-09T23:23:29.270Z,10.90
2019-05-09T23:25:59.688Z,10.90
2019-05-09T23:28:30.797Z,10.90
2019-05-09T23:31:03.257Z,10.90
2019-05-09T23:33:37.330Z,10.90
2019-05-09T23:36:07.958Z,10.90
2019-05-09T23:38:57.189Z,11.00
2019-05-09T23:41:27.741Z,10.90
2019-05-09T23:43:57.959Z,11.00
2019-05-09T23:46:28.598Z,11.00
2019-05-09T23:48:58.843Z,11.00
2019-05-09T23:51:44.939Z,10.90
2019-05-09T23:54:45.372Z,10.80
2019-05-09T23:57:26.239Z,10.90
